Time;durP1;ratioP1;P1;durP2;ratioP2;P2;SDS_P1;SDS_P2;PMS_P1;PMS_P2;Temp;Humidity;BMP_temperature;BMP_pressure;BME280_temperature;BME280_humidity;BME280_pressure;Samples;Min_cycle;Max_cycle;Signal;HPM_P1;HPM_P2
2022/05/27 00:00:44;;;;;;;;;2.00;2.00;;;;;19.51;48.85;101965.47;2104700;27;47373;-61
2022/05/27 00:01:44;;;;;;;;;1.67;1.67;;;;;19.51;48.84;101973.53;2092638;28;47061;-61
2022/05/27 00:02:47;;;;;;;;;0.00;0.00;;;;;19.48;48.98;101963.78;2096994;28;48078;-61
2022/05/27 00:03:49;;;;;;;;;3.25;1.75;;;;;19.46;49.08;101975.53;2102108;28;47924;-61
2022/05/27 00:04:49;;;;;;;;;1.25;1.25;;;;;19.45;49.02;101971.97;2093474;27;47452;-61
2022/05/27 00:05:51;;;;;;;;;1.00;1.00;;;;;19.43;48.79;101971.13;2103205;27;48273;-62
2022/05/27 00:06:51;;;;;;;;;1.50;0.25;;;;;19.43;49.03;101963.06;2096104;28;48075;-61
2022/05/27 00:07:51;;;;;;;;;1.00;1.00;;;;;19.40;49.32;101964.06;2094661;27;45183;-61
2022/05/27 00:08:52;;;;;;;;;1.67;1.67;;;;;19.38;49.10;101963.25;2104869;27;47868;-62
2022/05/27 00:09:53;;;;;;;;;1.00;1.00;;;;;19.37;49.18;101961.50;2095117;27;47900;-61
2022/05/27 00:10:55;;;;;;;;;1.00;1.00;;;;;19.37;49.15;101956.09;2095809;27;47264;-62
2022/05/27 00:11:55;;;;;;;;;0.50;0.25;;;;;19.36;49.03;101958.88;2104159;28;48185;-60
2022/05/27 00:12:56;;;;;;;;;1.00;1.00;;;;;19.35;49.46;101960.69;2081786;27;48204;-62
2022/05/27 00:13:57;;;;;;;;;0.00;0.00;;;;;19.34;49.13;101964.31;2062390;28;46490;-61
2022/05/27 00:14:57;;;;;;;;;0.00;0.00;;;;;19.34;49.18;101964.31;2087456;27;47081;-62
2022/05/27 00:15:57;;;;;;;;;1.00;1.00;;;;;19.35;49.11;101962.50;2100916;27;47980;-62
2022/05/27 00:16:58;;;;;;;;;0.33;0.00;;;;;19.34;48.98;101964.31;2097706;28;47678;-61
2022/05/27 00:17:58;;;;;;;;;1.00;1.00;;;;;19.35;49.62;101965.19;2072773;27;47569;-62
2022/05/27 00:18:59;;;;;;;;;5.00;2.00;;;;;19.33;49.23;101959.88;2104746;27;48383;-62
2022/05/27 00:19:59;;;;;;;;;1.33;1.33;;;;;19.33;49.19;101965.25;2093795;27;47486;-62
2022/05/27 00:21:00;;;;;;;;;0.00;0.00;;;;;19.33;49.60;101962.56;2093875;27;47675;-62
2022/05/27 00:22:01;;;;;;;;;1.33;1.33;;;;;19.34;49.45;101958.94;2054026;28;48156;-62
2022/05/27 00:23:01;;;;;;;;;3.00;2.00;;;;;19.34;49.29;101960.75;2078471;28;47558;-62
2022/05/27 00:24:02;;;;;;;;;1.67;1.67;;;;;19.34;49.72;101963.44;2090927;28;47251;-62
2022/05/27 00:25:03;;;;;;;;;0.00;0.00;;;;;19.33;49.46;101959.00;2095672;28;48192;-62
2022/05/27 00:26:04;;;;;;;;;2.50;2.50;;;;;19.33;49.47;101956.28;2081073;27;48096;-61
2022/05/27 00:27:08;;;;;;;;;1.00;0.50;;;;;19.33;49.52;101956.28;2104542;28;47922;-62
2022/05/27 00:28:09;;;;;;;;;0.75;0.75;;;;;19.33;49.77;101957.19;2092761;27;47580;-62
2022/05/27 00:29:09;;;;;;;;;1.00;1.00;;;;;19.34;49.37;101952.66;2093570;27;48155;-62
2022/05/27 00:30:10;;;;;;;;;0.00;0.00;;;;;19.34;49.54;101952.66;2104158;28;47439;-62
2022/05/27 00:31:10;;;;;;;;;0.00;0.00;;;;;19.35;49.53;101946.34;2097642;28;47979;-62
2022/05/27 00:32:11;;;;;;;;;0.67;0.67;;;;;19.34;49.72;101947.28;2104557;27;47643;-62
2022/05/27 00:33:11;;;;;;;;;2.00;1.00;;;;;19.34;49.67;101949.97;2098995;27;47434;-62
2022/05/27 00:34:13;;;;;;;;;2.00;2.00;;;;;19.33;49.30;101945.53;2084732;27;47717;-62
2022/05/27 00:35:14;;;;;;;;;1.00;1.00;;;;;19.34;49.35;101945.47;2058358;28;47674;-62
2022/05/27 00:36:14;;;;;;;;;0.00;0.00;;;;;19.34;49.56;101941.91;2057871;28;47473;-62
2022/05/27 00:37:15;;;;;;;;;1.00;1.00;;;;;19.32;49.37;101933.88;2061860;28;47827;-61
2022/05/27 00:38:16;;;;;;;;;2.50;1.00;;;;;19.30;49.62;101938.44;2074226;27;47841;-62
2022/05/27 00:39:17;;;;;;;;;0.75;0.50;;;;;19.29;49.33;101936.66;2085082;27;47916;-61
2022/05/27 00:40:18;;;;;;;;;0.00;0.00;;;;;19.30;49.67;101934.84;2076464;28;47273;-62
2022/05/27 00:41:19;;;;;;;;;1.00;1.00;;;;;19.30;49.84;101937.56;2057462;28;47402;-62
2022/05/27 00:42:19;;;;;;;;;2.00;2.00;;;;;19.30;49.95;101940.25;2099452;27;47345;-61
2022/05/27 00:43:20;;;;;;;;;1.00;1.00;;;;;19.29;49.35;101935.78;2103241;28;47860;-62
2022/05/27 00:44:21;;;;;;;;;0.75;0.75;;;;;19.28;49.37;101934.91;2093536;28;48133;-62
2022/05/27 00:45:24;;;;;;;;;1.00;1.00;;;;;19.27;49.51;101929.59;2095587;27;47569;-62
2022/05/27 00:46:29;;;;;;;;;0.00;0.00;;;;;19.26;49.77;101928.72;2104308;27;47849;-62
2022/05/27 00:47:35;;;;;;;;;2.25;0.25;;;;;19.24;49.51;101927.91;2067467;27;47668;-60
2022/05/27 00:48:38;;;;;;;;;1.00;1.00;;;;;19.23;49.29;101919.91;2070192;28;47890;-62
2022/05/27 00:49:48;;;;;;;;;2.00;2.00;;;;;19.22;49.54;101923.53;2104555;27;47397;-61
2022/05/27 00:50:50;;;;;;;;;1.25;1.25;;;;;19.21;49.52;101924.47;2096665;28;47250;-62
2022/05/27 00:52:01;;;;;;;;;0.00;0.00;;;;;19.20;49.66;101923.59;2088102;28;47731;-62
2022/05/27 00:53:03;;;;;;;;;1.00;1.00;;;;;19.20;49.94;101925.41;2088680;28;47896;-62
2022/05/27 00:54:13;;;;;;;;;1.00;1.00;;;;;19.20;49.75;101936.19;2098097;27;47521;-61
2022/05/27 00:55:18;;;;;;;;;1.75;1.75;;;;;19.19;50.19;101931.72;2095384;27;47728;-61
2022/05/27 00:56:20;;;;;;;;;2.25;2.25;;;;;19.17;49.74;101928.19;2100939;27;47599;-60
2022/05/27 00:57:40;;;;;;;;;1.00;1.00;;;;;19.17;49.85;101929.06;2100165;27;47112;-61
2022/05/27 00:58:48;;;;;;;;;1.25;1.25;;;;;19.18;49.70;101927.25;2070417;27;47914;-61
2022/05/27 00:59:53;;;;;;;;;1.75;1.75;;;;;19.16;49.72;101932.69;2068892;28;47347;-61
2022/05/27 01:00:54;;;;;;;;;1.00;1.00;;;;;19.16;49.90;101937.19;2104782;27;48065;-61
2022/05/27 01:01:54;;;;;;;;;3.25;2.50;;;;;19.14;49.68;101929.19;2061091;27;48068;-60
2022/05/27 01:02:55;;;;;;;;;0.50;0.50;;;;;19.14;49.76;101939.09;2057308;28;47705;-61
2022/05/27 01:03:57;;;;;;;;;0.50;0.50;;;;;19.13;49.65;101935.50;2104533;27;47425;-61
2022/05/27 01:05:01;;;;;;;;;0.00;0.00;;;;;19.13;49.92;101937.31;2078777;27;47842;-60
2022/05/27 01:06:01;;;;;;;;;1.00;1.00;;;;;19.11;50.06;101930.19;2062792;28;47571;-61
2022/05/27 01:07:02;;;;;;;;;1.33;1.00;;;;;19.13;49.62;101930.13;2100510;28;47592;-61
2022/05/27 01:08:07;;;;;;;;;0.75;0.75;;;;;19.13;50.15;101924.75;2097053;27;48082;-61
2022/05/27 01:09:07;;;;;;;;;1.75;1.75;;;;;19.13;49.72;101932.81;2104725;27;47617;-61
2022/05/27 01:10:11;;;;;;;;;1.00;1.00;;;;;19.11;49.91;101922.13;2097170;27;47717;-61
2022/05/27 01:11:27;;;;;;;;;1.00;1.00;;;;;19.11;50.13;101926.63;2094077;27;48557;-60
2022/05/27 01:12:50;;;;;;;;;2.25;1.00;;;;;19.11;50.00;101926.63;2101941;27;47445;-60
2022/05/27 01:14:03;;;;;;;;;0.75;0.75;;;;;19.09;49.93;101926.69;2028780;29;47678;-60
2022/05/27 01:15:13;;;;;;;;;1.25;1.25;;;;;19.08;50.09;101927.63;2052951;28;47966;-58
2022/05/27 01:16:28;;;;;;;;;1.00;1.00;;;;;19.08;49.96;101924.06;2058870;28;47687;-61
2022/05/27 01:18:07;;;;;;;;;1.00;1.00;;;;;19.05;50.10;101925.03;2068196;28;48155;-61
2022/05/27 01:21:25;;;;;;;;;2.00;2.00;;;;;19.01;50.17;101922.53;2024931;29;47807;-60
2022/05/27 01:22:45;;;;;;;;;3.75;2.00;;;;;18.99;50.21;101924.41;2023471;29;48227;-61
2022/05/27 01:23:58;;;;;;;;;1.50;1.50;;;;;18.99;50.45;101921.72;2022231;29;47927;-61
2022/05/27 01:25:32;;;;;;;;;1.00;1.00;;;;;18.97;50.56;101924.47;2020114;29;47748;-61
2022/05/27 01:26:50;;;;;;;;;0.00;0.00;;;;;18.96;50.45;101914.63;2022086;29;47151;-62
2022/05/27 01:28:09;;;;;;;;;1.67;1.00;;;;;18.95;50.66;101920.94;2025185;29;47569;-61
2022/05/27 01:29:24;;;;;;;;;2.25;2.25;;;;;18.95;50.63;101923.66;2024984;29;47646;-61
2022/05/27 01:30:34;;;;;;;;;1.75;1.75;;;;;18.95;50.87;101920.94;2022989;29;47900;-61
2022/05/27 01:31:39;;;;;;;;;1.00;1.00;;;;;18.94;50.58;101919.19;2023189;29;47559;-60
2022/05/27 01:33:16;;;;;;;;;0.75;0.75;;;;;18.95;50.57;101920.06;2021833;29;47312;-61
2022/05/27 01:34:32;;;;;;;;;0.00;0.00;;;;;18.95;50.62;101926.34;2025045;29;47883;-61
2022/05/27 01:35:42;;;;;;;;;1.00;1.00;;;;;18.94;50.76;101921.88;2025199;29;47493;-62
2022/05/27 01:37:18;;;;;;;;;1.50;1.50;;;;;18.94;50.74;101916.50;2022342;29;47830;-61
2022/05/27 01:38:30;;;;;;;;;1.75;1.25;;;;;18.93;50.83;101925.53;2021974;29;47415;-62
2022/05/27 01:39:56;;;;;;;;;2.00;2.00;;;;;18.94;50.80;101919.19;2021713;29;47178;-61
2022/05/27 01:41:09;;;;;;;;;2.00;1.00;;;;;18.95;50.80;101923.66;2028167;29;47968;-62
2022/05/27 01:42:29;;;;;;;;;3.00;1.25;;;;;18.95;51.00;101926.34;2028679;29;47904;-61
2022/05/27 01:43:40;;;;;;;;;2.00;2.00;;;;;18.95;51.07;101918.25;2023435;29;47722;-61
2022/05/27 01:44:47;;;;;;;;;1.00;1.00;;;;;18.94;50.96;101916.50;2014485;29;47766;-61
2022/05/27 01:46:05;;;;;;;;;1.25;1.25;;;;;18.93;50.77;101916.53;2024634;29;46836;-61
2022/05/27 01:47:08;;;;;;;;;0.75;0.75;;;;;18.92;51.20;101915.66;2024922;29;47955;-62
2022/05/27 01:48:13;;;;;;;;;1.75;0.75;;;;;18.91;51.15;101916.59;2022549;29;47680;-62
2022/05/27 01:49:37;;;;;;;;;1.00;1.00;;;;;18.91;51.07;101910.34;2023336;29;48387;-61
2022/05/27 01:50:45;;;;;;;;;0.25;0.25;;;;;18.90;51.12;101914.84;2024866;29;47722;-62
2022/05/27 01:51:57;;;;;;;;;1.50;1.25;;;;;18.89;51.19;101913.09;2031039;28;47619;-62
2022/05/27 01:53:20;;;;;;;;;1.25;1.25;;;;;18.87;51.17;101912.28;2059533;28;48041;-62
2022/05/27 01:54:34;;;;;;;;;0.00;0.00;;;;;18.88;51.26;101913.16;2061739;28;48185;-61
2022/05/27 01:55:42;;;;;;;;;1.00;1.00;;;;;18.87;51.09;101917.66;2051625;28;47249;-62
2022/05/27 01:56:59;;;;;;;;;1.00;0.00;;;;;18.86;51.17;101915.91;2061391;28;48158;-62
2022/05/27 01:58:11;;;;;;;;;0.00;0.00;;;;;18.86;51.24;101918.59;2086125;28;47686;-61
2022/05/27 01:59:32;;;;;;;;;0.75;0.75;;;;;18.86;51.31;101921.28;2096246;28;47560;-61
2022/05/27 02:00:35;;;;;;;;;1.00;1.00;;;;;18.85;51.22;101918.66;2097919;28;47409;-62
2022/05/27 02:01:47;;;;;;;;;1.00;1.00;;;;;18.86;51.30;101923.09;2088316;27;47505;-61
2022/05/27 02:03:01;;;;;;;;;2.00;1.00;;;;;18.84;51.58;101923.16;2096701;27;47729;-62
2022/05/27 02:04:26;;;;;;;;;1.25;1.25;;;;;18.84;51.28;101917.78;2104045;27;47410;-62
2022/05/27 02:05:33;;;;;;;;;3.00;2.00;;;;;18.83;51.40;101917.84;2100844;28;47727;-61
2022/05/27 02:06:41;;;;;;;;;2.00;1.75;;;;;18.82;51.11;101919.66;2092548;28;47920;-61
2022/05/27 02:07:58;;;;;;;;;1.50;1.50;;;;;18.80;51.60;101917.03;2096451;27;47748;-62
2022/05/27 02:09:06;;;;;;;;;2.00;2.00;;;;;18.79;51.36;101909.84;2105322;27;47581;-61
2022/05/27 02:10:13;;;;;;;;;2.00;2.00;;;;;18.78;51.33;101909.91;2103417;27;48468;-62
2022/05/27 02:11:19;;;;;;;;;1.50;1.00;;;;;18.77;51.33;101913.53;2097119;27;47820;-61
2022/05/27 02:12:26;;;;;;;;;1.00;1.00;;;;;18.76;51.41;101911.78;2103589;27;47831;-61
2022/05/27 02:13:33;;;;;;;;;2.75;2.75;;;;;18.76;51.38;101915.34;2076121;28;47733;-61
2022/05/27 02:15:06;;;;;;;;;0.75;0.75;;;;;18.75;51.35;101920.78;2071800;28;47706;-60
2022/05/27 02:16:15;;;;;;;;;2.00;2.00;;;;;18.74;51.25;101910.97;2096040;27;47686;-61
2022/05/27 02:17:23;;;;;;;;;0.75;0.75;;;;;18.73;51.24;101914.59;2105639;27;48084;-61
2022/05/27 02:18:34;;;;;;;;;2.75;1.25;;;;;18.72;51.23;101912.84;2080587;27;47406;-61
2022/05/27 02:19:48;;;;;;;;;1.25;1.25;;;;;18.70;51.27;101907.53;2070732;28;47554;-62
2022/05/27 02:20:56;;;;;;;;;0.00;0.00;;;;;18.68;51.04;101917.47;2100835;27;47740;-62
2022/05/27 02:22:03;;;;;;;;;2.25;2.25;;;;;18.66;51.14;101913.94;2104305;28;47807;-62
2022/05/27 02:23:15;;;;;;;;;1.50;1.50;;;;;18.66;51.23;101926.50;2094357;27;47911;-62
2022/05/27 02:24:36;;;;;;;;;0.75;0.75;;;;;18.64;51.32;101921.19;2075162;28;48158;-60
2022/05/27 02:25:44;;;;;;;;;1.25;1.25;;;;;18.65;51.23;101930.13;2087450;28;47591;-61
2022/05/27 02:26:51;;;;;;;;;1.75;1.75;;;;;18.64;51.35;101925.69;2101879;28;47202;-60
2022/05/27 02:28:15;;;;;;;;;1.00;1.00;;;;;18.61;51.27;101921.25;2094390;27;48057;-61
2022/05/27 02:29:30;;;;;;;;;2.75;1.00;;;;;18.61;51.16;101920.38;2095116;27;47845;-61
2022/05/27 02:30:33;;;;;;;;;1.50;0.75;;;;;18.59;51.46;101917.75;2100912;27;47947;-61
2022/05/27 02:31:37;;;;;;;;;0.25;0.25;;;;;18.58;51.28;101924.06;2102334;28;47567;-61
2022/05/27 02:32:42;;;;;;;;;2.25;2.25;;;;;18.58;51.41;101921.38;2095364;27;46654;-60
2022/05/27 02:35:23;;;;;;;;;1.25;1.25;;;;;18.58;51.49;101921.38;2105511;27;47953;-60
2022/05/27 02:36:32;;;;;;;;;1.50;1.50;;;;;18.57;51.61;101914.25;2100942;27;47399;-61
2022/05/27 02:37:46;;;;;;;;;1.50;1.50;;;;;18.58;51.65;101923.19;2077359;27;47640;-60
2022/05/27 02:38:48;;;;;;;;;1.00;1.00;;;;;18.59;51.74;101919.56;2060914;28;47599;-60
2022/05/27 02:39:49;;;;;;;;;2.00;2.00;;;;;18.59;51.48;101915.06;2105311;27;47924;-61
2022/05/27 02:41:20;;;;;;;;;1.33;1.33;;;;;18.60;52.09;101924.00;2071177;27;47755;-61
2022/05/27 02:42:52;;;;;;;;;2.00;2.00;;;;;18.62;51.58;101917.63;2069722;28;47854;-61
2022/05/27 02:44:08;;;;;;;;;2.00;2.00;;;;;18.61;51.60;101921.25;2081251;28;47150;-61
2022/05/27 02:45:33;;;;;;;;;3.00;2.00;;;;;18.60;51.60;101922.19;2095747;27;47760;-61
2022/05/27 02:46:49;;;;;;;;;5.67;2.00;;;;;18.59;51.74;101916.88;2102409;27;48316;-61
2022/05/27 02:47:56;;;;;;;;;1.25;1.00;;;;;18.59;51.61;101920.44;2094090;27;48233;-62
2022/05/27 02:49:12;;;;;;;;;2.00;2.00;;;;;18.59;51.82;101919.56;2088665;28;47844;-61
2022/05/27 02:50:26;;;;;;;;;2.00;2.00;;;;;18.58;51.67;101918.69;2085610;27;46891;-61
2022/05/27 02:51:29;;;;;;;;;3.00;2.75;;;;;18.58;51.76;101921.38;2063933;28;48185;-60
2022/05/27 02:52:56;;;;;;;;;2.00;2.00;;;;;18.58;51.29;101917.81;2101410;28;47565;-61
2022/05/27 02:54:10;;;;;;;;;2.50;2.00;;;;;18.56;51.56;101919.69;2056732;28;48140;-61
2022/05/27 02:55:27;;;;;;;;;2.00;2.00;;;;;18.56;51.42;101919.69;2051579;28;47058;-61
2022/05/27 02:56:54;;;;;;;;;2.00;1.75;;;;;18.54;51.54;101920.59;2029092;29;47705;-61
2022/05/27 02:58:02;;;;;;;;;2.00;2.00;;;;;18.54;51.54;101917.91;2030687;28;47872;-61
2022/05/27 02:59:03;;;;;;;;;1.25;1.00;;;;;18.53;51.61;101912.59;2071091;28;47800;-61
2022/05/27 03:00:18;;;;;;;;;4.00;2.00;;;;;18.52;51.76;101917.09;2063096;28;47723;-60
2022/05/27 03:01:18;;;;;;;;;1.00;1.00;;;;;18.50;51.66;101918.97;2058874;28;47967;-61
2022/05/27 03:02:19;;;;;;;;;4.33;4.00;;;;;18.49;51.75;101916.31;2029872;29;47708;-61
2022/05/27 03:03:19;;;;;;;;;4.33;4.00;;;;;18.49;51.64;101917.19;2050641;28;47619;-61
2022/05/27 03:04:21;;;;;;;;;1.00;1.00;;;;;18.49;51.79;101914.50;2068049;28;47526;-61
2022/05/27 03:05:29;;;;;;;;;3.75;2.75;;;;;18.49;52.01;101911.81;2066932;28;47307;-62
2022/05/27 03:06:43;;;;;;;;;3.00;2.25;;;;;18.50;51.78;101926.16;2062864;28;47753;-61
2022/05/27 03:08:08;;;;;;;;;3.00;3.00;;;;;18.48;51.68;101917.25;2063329;28;48175;-61
2022/05/27 03:09:18;;;;;;;;;4.25;4.25;;;;;18.49;51.69;101927.06;2068353;28;47442;-61
2022/05/27 03:10:57;;;;;;;;;2.75;2.75;;;;;18.48;51.71;101922.63;2021769;29;46842;-60
2022/05/27 03:12:19;;;;;;;;;3.75;1.25;;;;;18.45;51.82;101918.25;2022046;28;47562;-61
2022/05/27 03:13:38;;;;;;;;;2.25;2.25;;;;;18.43;51.79;101920.13;2031056;28;47758;-61
2022/05/27 03:15:23;;;;;;;;;4.25;3.00;;;;;18.42;51.76;101922.84;2036301;28;47338;-61
2022/05/27 03:16:38;;;;;;;;;2.00;2.00;;;;;18.42;51.84;101914.78;2059601;28;47912;-62
2022/05/27 03:18:05;;;;;;;;;0.00;0.00;;;;;18.40;52.12;101917.53;2064339;28;48352;-61
2022/05/27 03:19:21;;;;;;;;;3.00;3.00;;;;;18.41;51.76;101913.03;2023389;29;48138;-60
2022/05/27 03:20:31;;;;;;;;;2.75;2.75;;;;;18.40;52.08;101922.03;2022926;29;48161;-61
2022/05/27 03:22:00;;;;;;;;;3.00;3.00;;;;;18.39;51.93;101922.94;2024768;29;48210;-61
2022/05/27 03:23:12;;;;;;;;;2.25;2.25;;;;;18.38;52.19;101922.06;2025133;29;47707;-61
2022/05/27 03:24:19;;;;;;;;;5.50;4.50;;;;;18.37;51.95;101923.00;2025043;29;47851;-61
2022/05/27 03:25:38;;;;;;;;;3.75;2.25;;;;;18.36;52.17;101923.94;2022493;29;48144;-61
2022/05/27 03:26:53;;;;;;;;;2.25;2.25;;;;;18.36;52.19;101920.38;2021439;29;47796;-59
2022/05/27 03:27:59;;;;;;;;;2.75;2.75;;;;;18.35;52.16;101926.69;2025294;29;47987;-61
2022/05/27 03:29:28;;;;;;;;;3.25;3.25;;;;;18.34;52.10;101922.25;2025200;29;47890;-61
2022/05/27 03:30:36;;;;;;;;;3.75;2.50;;;;;18.35;52.08;101918.63;2023838;29;47855;-61
2022/05/27 03:31:51;;;;;;;;;3.25;2.00;;;;;18.33;52.19;101926.75;2038342;28;47964;-61
2022/05/27 03:33:44;;;;;;;;;2.25;2.25;;;;;18.35;52.03;101926.69;2052756;28;47488;-60
2022/05/27 03:34:58;;;;;;;;;4.00;3.25;;;;;18.32;52.19;101922.31;2038761;28;48346;-61
2022/05/27 03:36:05;;;;;;;;;3.50;3.50;;;;;18.32;52.00;101914.25;2040878;28;47275;-61
2022/05/27 03:37:23;;;;;;;;;4.75;4.75;;;;;18.32;52.20;101918.75;2040934;28;46979;-60
2022/05/27 03:38:45;;;;;;;;;4.20;4.20;;;;;18.31;52.13;101915.19;2038682;28;47803;-61
2022/05/27 03:40:11;;;;;;;;;4.00;4.00;;;;;18.30;51.86;101917.91;2038737;28;46530;-61
2022/05/27 03:41:29;;;;;;;;;2.75;1.00;;;;;18.29;51.92;101919.69;2035161;28;47743;-60
2022/05/27 03:42:31;;;;;;;;;4.75;3.75;;;;;18.29;52.40;101908.06;2033905;28;47351;-61
2022/05/27 03:43:35;;;;;;;;;5.00;5.00;;;;;18.28;52.25;101926.00;2032212;28;47796;-60
2022/05/27 03:44:35;;;;;;;;;3.50;3.50;;;;;18.27;52.15;101918.00;2030714;29;47850;-61
2022/05/27 03:45:57;;;;;;;;;3.33;3.33;;;;;18.28;52.29;101917.94;2024940;29;47375;-62
2022/05/27 03:46:59;;;;;;;;;2.25;2.25;;;;;18.28;52.28;101917.06;2027542;28;47617;-62
2022/05/27 03:47:59;;;;;;;;;4.50;4.50;;;;;18.29;52.39;101924.19;2030798;29;46876;-62
2022/05/27 03:49:00;;;;;;;;;5.00;5.00;;;;;18.29;52.15;101932.25;2032836;28;47468;-61
2022/05/27 03:50:01;;;;;;;;;6.50;6.00;;;;;18.28;52.17;101928.69;2032824;28;47476;-62
2022/05/27 03:51:19;;;;;;;;;5.50;4.50;;;;;18.29;52.62;101935.81;2022866;29;47804;-61
2022/05/27 03:52:25;;;;;;;;;5.00;5.00;;;;;18.30;52.20;101929.53;2024713;29;47919;-62
2022/05/27 03:54:03;;;;;;;;;7.00;7.00;;;;;18.32;52.21;101924.13;2032780;28;47475;-62
2022/05/27 03:54:46;;;;;;;;;9.00;9.00;;;;;18.32;52.27;101932.19;2032565;28;47991;-62
2022/05/27 03:55:47;;;;;;;;;11.50;10.50;;;;;18.30;52.22;101929.53;2030643;28;47512;-62
2022/05/27 03:56:47;;;;;;;;;11.00;10.00;;;;;18.29;52.13;101927.75;2039288;28;47335;-62
2022/05/27 03:57:48;;;;;;;;;10.50;10.50;;;;;18.29;52.18;101925.06;2047220;28;48164;-62
2022/05/27 03:58:48;;;;;;;;;10.00;10.00;;;;;18.29;52.31;101925.06;2048047;28;47926;-61
2022/05/27 03:59:49;;;;;;;;;11.67;10.67;;;;;18.30;52.25;101925.97;2048784;28;46492;-62
2022/05/27 04:00:49;;;;;;;;;9.67;8.67;;;;;18.30;52.23;101924.16;2046036;28;47625;-61
2022/05/27 04:01:52;;;;;;;;;9.00;9.00;;;;;18.29;52.24;101922.38;2048890;28;47636;-61
2022/05/27 04:02:52;;;;;;;;;9.20;9.20;;;;;18.29;52.36;101922.38;2048767;28;47324;-61
2022/05/27 04:03:53;;;;;;;;;7.00;7.00;;;;;18.29;52.28;101919.69;2046300;28;47636;-62
2022/05/27 04:04:53;;;;;;;;;9.00;8.33;;;;;18.31;52.24;101922.38;2048715;28;47728;-62
2022/05/27 04:05:54;;;;;;;;;10.33;8.00;;;;;18.32;52.39;101921.44;2052327;28;47619;-62
2022/05/27 04:06:55;;;;;;;;;7.00;7.00;;;;;18.33;52.08;101917.81;2080148;28;47567;-62
2022/05/27 04:07:55;;;;;;;;;9.33;9.33;;;;;18.34;52.40;101920.44;2081246;28;47428;-61
2022/05/27 04:08:57;;;;;;;;;8.00;8.00;;;;;18.34;52.36;101919.56;2078914;28;47979;-62
2022/05/27 04:09:57;;;;;;;;;9.00;9.00;;;;;18.35;52.27;101921.31;2081288;28;47399;-62
2022/05/27 04:10:57;;;;;;;;;6.33;6.33;;;;;18.36;52.31;101923.06;2079138;28;47706;-60
2022/05/27 04:11:58;;;;;;;;;4.33;4.33;;;;;18.35;52.37;101924.88;2078307;28;48109;-61
2022/05/27 04:12:58;;;;;;;;;8.00;7.00;;;;;18.35;52.36;101930.25;2080890;28;48105;-59
2022/05/27 04:13:59;;;;;;;;;7.67;7.67;;;;;18.36;52.70;101929.31;2078671;28;47750;-61
2022/05/27 04:14:59;;;;;;;;;6.00;6.00;;;;;18.36;52.17;101929.31;2078593;28;47853;-61
2022/05/27 04:16:00;;;;;;;;;9.00;8.00;;;;;18.36;52.25;101933.81;2079675;28;47679;-62
2022/05/27 04:18:19;;;;;;;;;6.50;6.50;;;;;18.37;52.45;101932.88;2075572;28;47782;-61
2022/05/27 04:19:20;;;;;;;;;8.33;7.67;;;;;18.36;52.42;101929.31;2091143;28;47693;-62
2022/05/27 04:20:21;;;;;;;;;9.75;8.00;;;;;18.36;52.39;101926.63;2056517;28;47517;-62
2022/05/27 04:21:23;;;;;;;;;7.67;6.33;;;;;18.35;52.54;101924.00;2076977;28;46015;-62
2022/05/27 04:22:23;;;;;;;;;7.00;7.00;;;;;18.35;52.57;101932.94;2108785;27;47756;-62
2022/05/27 04:23:24;;;;;;;;;7.33;7.33;;;;;18.37;52.40;101930.19;2105178;27;47847;-62
2022/05/27 04:24:24;;;;;;;;;5.00;4.67;;;;;18.38;52.29;101930.13;2083444;27;48017;-61
2022/05/27 04:25:25;;;;;;;;;8.00;5.00;;;;;18.37;52.27;101939.13;2100590;27;48056;-62
2022/05/27 04:26:26;;;;;;;;;7.00;7.00;;;;;18.36;52.63;101939.19;2087605;28;47549;-62
2022/05/27 04:27:27;;;;;;;;;6.75;6.75;;;;;18.36;52.36;101945.44;2094217;27;47860;-60
2022/05/27 04:28:28;;;;;;;;;6.25;5.50;;;;;18.36;52.40;101936.50;2104437;27;48019;-61
2022/05/27 04:29:28;;;;;;;;;10.00;6.33;;;;;18.36;52.41;101940.06;2084549;28;47611;-61
2022/05/27 04:30:29;;;;;;;;;7.00;7.00;;;;;18.35;52.49;101941.00;2090974;28;47502;-60
2022/05/27 04:31:29;;;;;;;;;10.33;9.00;;;;;18.36;52.51;101939.19;2099247;28;47439;-61
2022/05/27 04:32:29;;;;;;;;;6.33;6.33;;;;;18.36;52.52;101940.06;2094594;27;48057;-62
2022/05/27 04:33:30;;;;;;;;;10.00;7.33;;;;;18.37;52.53;101938.25;2104820;27;48175;-62
2022/05/27 04:34:31;;;;;;;;;7.33;7.33;;;;;18.38;52.47;101940.88;2094196;27;47677;-61
2022/05/27 04:35:31;;;;;;;;;7.33;7.00;;;;;18.39;52.58;101944.44;2095507;27;47590;-62
2022/05/27 04:36:32;;;;;;;;;7.33;7.33;;;;;18.39;52.46;101941.75;2104413;27;46437;-63
2022/05/27 04:37:33;;;;;;;;;6.33;6.33;;;;;18.39;52.58;101944.44;2095649;27;47428;-59
2022/05/27 04:38:35;;;;;;;;;6.00;5.25;;;;;18.38;52.60;101943.56;2056140;28;47464;-61
2022/05/27 04:39:37;;;;;;;;;9.00;8.00;;;;;18.37;52.39;101940.94;2101250;28;48110;-60
2022/05/27 04:40:38;;;;;;;;;8.75;8.75;;;;;18.37;52.77;101946.31;2080542;27;47971;-60
2022/05/27 04:41:39;;;;;;;;;5.33;5.00;;;;;18.36;52.54;101948.13;2061949;28;47191;-61
2022/05/27 04:42:39;;;;;;;;;6.50;6.50;;;;;18.36;52.76;101941.88;2095459;28;47600;-60
2022/05/27 04:43:40;;;;;;;;;7.33;6.00;;;;;18.35;52.96;101932.94;2073506;27;48113;-61
2022/05/27 04:44:41;;;;;;;;;9.50;7.25;;;;;18.34;52.63;101936.56;2094769;28;47400;-61
2022/05/27 04:45:41;;;;;;;;;7.00;5.33;;;;;18.33;52.82;101936.63;2086896;28;47474;-63
2022/05/27 04:46:45;;;;;;;;;6.67;6.67;;;;;18.32;52.69;101929.50;2097933;27;47678;-63
2022/05/27 04:47:46;;;;;;;;;6.00;5.50;;;;;18.30;52.91;101929.53;2099463;28;48492;-61
2022/05/27 04:48:49;;;;;;;;;8.00;8.00;;;;;18.31;52.95;101938.50;2095841;27;48128;-61
2022/05/27 04:49:56;;;;;;;;;12.50;10.25;;;;;18.30;53.00;101932.22;2102827;27;47417;-61
2022/05/27 04:50:56;;;;;;;;;6.75;6.75;;;;;18.32;52.77;101934.88;2102156;28;45647;-61
2022/05/27 04:51:57;;;;;;;;;8.00;8.00;;;;;18.32;52.72;101935.75;2096695;28;47980;-61
2022/05/27 04:52:57;;;;;;;;;6.67;6.67;;;;;18.33;52.78;101933.94;2104579;27;47860;-61
2022/05/27 04:53:57;;;;;;;;;6.33;6.33;;;;;18.33;53.00;101934.81;2097708;27;47240;-62
2022/05/27 04:55:00;;;;;;;;;8.00;7.00;;;;;18.34;53.04;101933.00;2097153;27;48044;-62
2022/05/27 04:56:01;;;;;;;;;7.50;7.50;;;;;18.33;52.84;101934.81;2104656;27;46724;-61
2022/05/27 04:57:02;;;;;;;;;7.00;7.00;;;;;18.32;52.81;101935.75;2096532;27;47925;-61
2022/05/27 04:58:03;;;;;;;;;7.50;7.50;;;;;18.33;53.03;101939.31;2097444;27;47527;-60
2022/05/27 04:59:03;;;;;;;;;9.50;7.25;;;;;18.35;52.80;101948.19;2104118;27;48260;-59
2022/05/27 05:00:12;;;;;;;;;5.00;5.00;;;;;18.34;52.91;101941.94;2095214;27;47798;-60
2022/05/27 05:01:12;;;;;;;;;6.00;6.00;;;;;18.36;52.83;101947.25;2069301;27;47613;-61
2022/05/27 05:02:14;;;;;;;;;9.00;9.00;;;;;18.35;52.76;101937.44;2060352;28;47890;-59
2022/05/27 05:03:14;;;;;;;;;7.50;7.50;;;;;18.35;52.93;101938.31;2053456;28;47838;-61
2022/05/27 05:04:15;;;;;;;;;10.00;8.67;;;;;18.36;52.98;101944.56;2061505;28;47656;-61
2022/05/27 05:05:18;;;;;;;;;6.75;6.75;;;;;18.36;53.18;101932.00;2061763;28;47751;-61
2022/05/27 05:06:19;;;;;;;;;10.00;8.50;;;;;18.36;53.03;101937.38;2061399;28;47702;-62
2022/05/27 05:07:22;;;;;;;;;7.00;7.00;;;;;18.37;53.09;101939.13;2060335;28;47982;-61
2022/05/27 05:08:33;;;;;;;;;7.25;7.25;;;;;18.37;52.95;101933.75;2061180;28;47725;-62
2022/05/27 05:09:36;;;;;;;;;8.25;8.00;;;;;18.37;52.88;101938.25;2061780;28;47946;-62
2022/05/27 05:10:36;;;;;;;;;8.00;8.00;;;;;18.38;53.02;101934.63;2062124;28;48169;-61
2022/05/27 05:11:37;;;;;;;;;9.67;6.67;;;;;18.38;52.89;101940.00;2056119;28;46749;-62
2022/05/27 05:12:38;;;;;;;;;7.00;7.00;;;;;18.39;53.30;101939.97;2061638;28;47398;-62
2022/05/27 05:13:38;;;;;;;;;9.00;9.00;;;;;18.38;52.86;101935.50;2061770;28;48015;-61
2022/05/27 05:14:40;;;;;;;;;10.33;10.33;;;;;18.39;53.14;101945.31;2085367;28;47632;-62
2022/05/27 05:15:40;;;;;;;;;6.75;6.50;;;;;18.37;53.02;101938.25;2104468;27;47773;-60
2022/05/27 05:16:41;;;;;;;;;10.00;10.00;;;;;18.35;53.10;101941.00;2080383;27;47597;-62
2022/05/27 05:17:42;;;;;;;;;10.00;8.33;;;;;18.36;53.11;101940.06;2061776;28;47833;-61
2022/05/27 05:18:43;;;;;;;;;9.60;9.00;;;;;18.36;53.14;101939.19;2060532;28;48442;-61